Time;durP1;ratioP1;P1;durP2;ratioP2;P2;SDS_P1;SDS_P2;PMS_P1;PMS_P2;Temp;Humidity;BMP_temperature;BMP_pressure;BME280_temperature;BME280_humidity;BME280_pressure;Samples;Min_cycle;Max_cycle;Signal;HPM_P1;HPM_P2
2023/10/22 00:02:06;;;;;;;3.50;1.10;;;;;;;;;;5078836;28;20195;-86
2023/10/22 00:04:35;;;;;;;3.10;1.10;;;;;;;;;;5089737;28;20202;-85
2023/10/22 00:13:30;;;;;;;4.00;1.33;;;;;;;;;;5082021;28;20173;-86
2023/10/22 00:16:21;;;;;;;2.00;1.00;;;;;;;;;;5089232;28;20187;-86
2023/10/22 00:19:02;;;;;;;2.13;1.20;;;;;;;;;;5067031;28;20184;-86
2023/10/22 00:24:54;;;;;;;2.10;1.00;;;;;;;;;;5089837;28;20206;-86
2023/10/22 00:27:20;;;;;;;1.77;1.00;;;;;;;;;;5079614;28;20187;-86
2023/10/22 00:36:02;;;;;;;4.37;1.30;;;;;;;;;;5001340;28;20213;-86
2023/10/22 00:38:43;;;;;;;4.67;1.30;;;;;;;;;;4993987;28;20213;-86
2023/10/22 00:41:12;;;;;;;4.97;1.20;;;;;;;;;;5043903;28;20195;-86
2023/10/22 00:46:59;;;;;;;3.87;1.10;;;;;;;;;;5086629;28;20187;-84
2023/10/22 00:49:34;;;;;;;2.53;1.10;;;;;;;;;;5065351;28;20179;-84
2023/10/22 00:52:10;;;;;;;;;;;;;;;;;;;;;
2023/10/22 00:54:53;;;;;;;1.43;1.00;;;;;;;;;;5088472;28;20209;-86
2023/10/22 00:57:29;;;;;;;2.00;1.20;;;;;;;;;;5051412;28;20209;-86
2023/10/22 00:59:58;;;;;;;3.43;1.37;;;;;;;;;;5065177;28;20181;-87
2023/10/22 01:02:54;;;;;;;;;;;;;;;;;;;;;
2023/10/22 01:08:26;;;;;;;3.27;1.13;;;;;;;;;;5070641;28;20190;-87
2023/10/22 01:13:57;;;;;;;4.17;1.30;;;;;;;;;;5069292;28;20458;-86
2023/10/22 01:16:33;;;;;;;2.85;1.30;;;;;;;;;;5055830;28;20449;-86
2023/10/22 01:19:11;;;;;;;2.90;1.35;;;;;;;;;;5052246;28;20441;-87
2023/10/22 01:24:50;;;;;;;3.70;1.30;;;;;;;;;;5078808;28;20453;-87
2023/10/22 01:27:16;;;;;;;3.00;1.40;;;;;;;;;;5064723;28;20422;-86
2023/10/22 01:29:48;;;;;;;3.78;1.50;;;;;;;;;;5064056;28;20506;-86
2023/10/22 01:32:18;;;;;;;3.67;1.33;;;;;;;;;;5067580;28;20450;-86
2023/10/22 01:34:49;;;;;;;4.70;1.50;;;;;;;;;;5063174;28;20419;-87
2023/10/22 01:37:31;;;;;;;4.38;1.40;;;;;;;;;;5063633;28;20442;-85
2023/10/22 01:39:59;;;;;;;4.78;1.52;;;;;;;;;;5065686;28;20431;-88
2023/10/22 01:42:36;;;;;;;;;;;;;;;;;;;;;
2023/10/22 01:45:27;;;;;;;3.83;1.30;;;;;;;;;;5077975;28;20434;-87
2023/10/22 01:48:05;;;;;;;3.15;1.50;;;;;;;;;;5049422;28;20432;-87
2023/10/22 01:50:51;;;;;;;2.75;1.33;;;;;;;;;;5064328;28;20406;-87
2023/10/22 01:53:27;;;;;;;5.82;1.52;;;;;;;;;;5056795;28;20411;-86
2023/10/22 01:58:59;;;;;;;4.40;1.30;;;;;;;;;;5057168;28;20406;-86
2023/10/22 02:01:44;;;;;;;3.83;1.40;;;;;;;;;;5047635;28;20402;-87
2023/10/22 02:10:16;;;;;;;2.35;1.40;;;;;;;;;;5061547;28;20404;-86
2023/10/22 02:13:28;;;;;;;;;;;;;;;;;;;;;
2023/10/22 02:16:14;;;;;;;3.35;1.42;;;;;;;;;;5058288;28;20426;-86
2023/10/22 02:18:43;;;;;;;3.20;1.42;;;;;;;;;;5057375;28;20406;-87
2023/10/22 02:21:41;;;;;;;;;;;;;;;;;;;;;
2023/10/22 02:24:11;;;;;;;4.82;1.58;;;;;;;;;;5021686;28;20431;-86
2023/10/22 02:26:40;;;;;;;4.75;1.63;;;;;;;;;;5037301;28;20423;-86
2023/10/22 02:29:06;;;;;;;3.72;1.50;;;;;;;;;;5039707;28;20409;-87
2023/10/22 02:31:42;;;;;;;6.07;1.83;;;;;;;;;;5028840;28;20452;-87
2023/10/22 02:34:33;;;;;;;4.07;1.83;;;;;;;;;;5044207;28;20418;-87
2023/10/22 02:37:11;;;;;;;4.63;1.70;;;;;;;;;;5045323;28;20443;-84
2023/10/22 02:39:37;;;;;;;6.22;2.08;;;;;;;;;;5082506;28;20448;-84
2023/10/22 02:42:03;;;;;;;5.33;1.70;;;;;;;;;;5084652;28;20231;-84
2023/10/22 02:44:35;;;;;;;4.90;1.80;;;;;;;;;;5073890;28;20207;-83
2023/10/22 02:47:02;;;;;;;4.47;2.17;;;;;;;;;;5082287;28;20208;-84
2023/10/22 02:49:41;;;;;;;4.55;2.00;;;;;;;;;;5081169;28;20436;-84
2023/10/22 02:52:09;;;;;;;6.73;1.90;;;;;;;;;;5077744;28;20180;-83
2023/10/22 02:54:35;;;;;;;5.97;1.93;;;;;;;;;;5066055;28;20190;-83
2023/10/22 02:57:07;;;;;;;2.97;1.73;;;;;;;;;;5081428;28;20190;-83
2023/10/22 03:05:45;;;;;;;3.93;2.00;;;;;;;;;;5078575;28;20228;-83
2023/10/22 03:11:04;;;;;;;3.57;1.90;;;;;;;;;;5074568;28;20274;-86
2023/10/22 03:13:31;;;;;;;4.30;1.87;;;;;;;;;;5086797;28;20186;-88
2023/10/22 03:16:14;;;;;;;4.40;2.00;;;;;;;;;;5088120;28;20182;-86
2023/10/22 03:18:44;;;;;;;4.60;2.07;;;;;;;;;;5091165;28;20179;-86
2023/10/22 03:21:28;;;;;;;5.47;2.03;;;;;;;;;;5081764;28;20188;-85
2023/10/22 03:24:03;;;;;;;6.47;2.20;;;;;;;;;;5082300;28;20218;-86
2023/10/22 03:26:49;;;;;;;6.90;2.00;;;;;;;;;;5079778;28;20186;-86
2023/10/22 03:29:15;;;;;;;8.13;2.43;;;;;;;;;;5084828;28;20178;-86
2023/10/22 03:31:44;;;;;;;5.07;2.23;;;;;;;;;;5072603;28;20240;-86
2023/10/22 03:34:13;;;;;;;4.67;2.10;;;;;;;;;;5086479;28;20199;-87
2023/10/22 03:36:41;;;;;;;3.93;2.00;;;;;;;;;;5086524;28;20209;-87
2023/10/22 03:39:07;;;;;;;5.80;2.00;;;;;;;;;;5070466;28;20199;-87
2023/10/22 03:41:44;;;;;;;5.93;2.10;;;;;;;;;;5086833;28;20190;-86
2023/10/22 03:44:32;;;;;;;4.60;2.10;;;;;;;;;;5080332;28;20209;-86
2023/10/22 03:46:58;;;;;;;3.77;2.10;;;;;;;;;;5082382;28;20189;-88
2023/10/22 03:49:30;;;;;;;5.00;2.23;;;;;;;;;;5089260;28;20179;-86
2023/10/22 03:52:22;;;;;;;6.53;2.60;;;;;;;;;;5081130;28;20185;-87
2023/10/22 03:54:53;;;;;;;6.97;2.60;;;;;;;;;;5081710;28;20216;-87
2023/10/22 03:57:19;;;;;;;6.97;2.70;;;;;;;;;;5093523;28;20239;-87
2023/10/22 03:59:55;;;;;;;6.97;2.83;;;;;;;;;;5098025;28;20271;-86
2023/10/22 04:02:29;;;;;;;6.03;2.67;;;;;;;;;;5084714;28;20191;-87
2023/10/22 04:04:58;;;;;;;6.27;2.90;;;;;;;;;;5086078;28;20219;-87
2023/10/22 04:07:30;;;;;;;4.63;2.63;;;;;;;;;;5086001;28;20191;-87
2023/10/22 04:10:16;;;;;;;5.50;3.23;;;;;;;;;;5061481;28;20284;-87
2023/10/22 04:12:44;;;;;;;7.73;3.17;;;;;;;;;;5046673;28;20180;-86
2023/10/22 04:15:16;;;;;;;5.20;3.23;;;;;;;;;;5047963;28;20199;-86
2023/10/22 04:17:52;;;;;;;6.77;3.10;;;;;;;;;;5026627;28;20193;-87
2023/10/22 04:20:26;;;;;;;8.33;3.97;;;;;;;;;;5033838;28;20279;-88
2023/10/22 04:22:54;;;;;;;6.90;3.70;;;;;;;;;;5032466;28;20198;-86
2023/10/22 04:25:24;;;;;;;5.63;3.30;;;;;;;;;;5052650;28;20219;-87
2023/10/22 04:27:55;;;;;;;6.93;4.10;;;;;;;;;;5040476;28;20188;-87
2023/10/22 04:30:40;;;;;;;5.57;4.00;;;;;;;;;;5048107;28;20263;-87
2023/10/22 04:33:09;;;;;;;4.80;4.17;;;;;;;;;;5045429;28;20184;-87
2023/10/22 04:35:38;;;;;;;8.00;4.43;;;;;;;;;;5037840;28;20235;-86
2023/10/22 04:38:14;;;;;;;;;;;;;;;;;;;;;
2023/10/22 04:40:41;;;;;;;5.60;4.97;;;;;;;;;;5058612;28;20199;-87
2023/10/22 04:43:07;;;;;;;7.33;4.47;;;;;;;;;;5036808;28;20187;-86
2023/10/22 04:45:36;;;;;;;7.90;4.50;;;;;;;;;;5029540;28;20224;-86
2023/10/22 04:48:05;;;;;;;5.47;4.50;;;;;;;;;;5035572;28;20219;-87
2023/10/22 04:50:42;;;;;;;5.40;4.10;;;;;;;;;;5020784;28;20195;-86
2023/10/22 04:53:17;;;;;;;5.10;4.10;;;;;;;;;;5021800;28;20195;-86
2023/10/22 04:55:52;;;;;;;4.77;3.90;;;;;;;;;;5009649;28;20200;-86
2023/10/22 04:58:27;;;;;;;6.37;4.50;;;;;;;;;;5047227;28;20191;-87
2023/10/22 05:01:00;;;;;;;5.60;4.63;;;;;;;;;;5032203;28;20280;-86
2023/10/22 05:03:26;;;;;;;6.30;4.97;;;;;;;;;;5051867;28;20195;-86
2023/10/22 05:05:55;;;;;;;5.60;4.90;;;;;;;;;;5037418;28;20215;-87
2023/10/22 05:08:27;;;;;;;7.47;5.50;;;;;;;;;;5046843;28;20188;-86
2023/10/22 05:10:56;;;;;;;6.53;5.87;;;;;;;;;;5020004;28;20180;-86
2023/10/22 05:13:43;;;;;;;7.87;6.33;;;;;;;;;;5025544;28;20243;-86
2023/10/22 05:16:10;;;;;;;9.97;6.30;;;;;;;;;;5050951;28;20255;-86
2023/10/22 05:18:37;;;;;;;8.20;6.60;;;;;;;;;;5027732;28;20188;-86
2023/10/22 05:21:16;;;;;;;10.83;6.77;;;;;;;;;;5036439;28;20193;-86
2023/10/22 05:23:44;;;;;;;10.43;7.60;;;;;;;;;;5035781;28;20278;-86
2023/10/22 05:26:11;;;;;;;9.87;7.30;;;;;;;;;;5048187;28;20220;-86
2023/10/22 05:28:53;;;;;;;9.40;7.13;;;;;;;;;;5026405;28;20184;-87
2023/10/22 05:31:38;;;;;;;9.47;7.60;;;;;;;;;;5026903;28;20249;-86
2023/10/22 05:34:17;;;;;;;11.73;8.03;;;;;;;;;;5026600;28;20180;-86
2023/10/22 05:36:56;;;;;;;9.27;8.00;;;;;;;;;;5014851;28;20211;-86
2023/10/22 05:39:36;;;;;;;9.77;7.00;;;;;;;;;;5080045;28;20183;-87
2023/10/22 05:42:04;;;;;;;9.63;7.13;;;;;;;;;;5069463;28;20221;-86
2023/10/22 05:44:30;;;;;;;9.33;6.37;;;;;;;;;;5075407;28;20199;-86
2023/10/22 05:47:15;;;;;;;8.30;6.07;;;;;;;;;;5083628;28;20186;-87
2023/10/22 05:50:02;;;;;;;8.70;6.40;;;;;;;;;;5086589;28;20189;-87
2023/10/22 05:52:55;;;;;;;7.13;6.20;;;;;;;;;;5067339;28;20194;-87
2023/10/22 05:55:32;;;;;;;10.80;6.37;;;;;;;;;;5059259;28;20198;-88
2023/10/22 05:58:06;;;;;;;10.00;6.73;;;;;;;;;;5063185;28;20294;-87
2023/10/22 06:00:32;;;;;;;10.03;6.97;;;;;;;;;;5083151;28;20174;-87
2023/10/22 06:03:19;;;;;;;10.73;8.00;;;;;;;;;;5083436;28;20187;-88
2023/10/22 06:06:11;;;;;;;9.47;8.37;;;;;;;;;;5063314;28;20241;-88
2023/10/22 06:09:05;;;;;;;12.30;9.20;;;;;;;;;;5075504;28;20201;-88
2023/10/22 06:11:41;;;;;;;15.87;10.00;;;;;;;;;;5085777;28;20270;-87
2023/10/22 06:14:08;;;;;;;12.37;10.40;;;;;;;;;;5078613;28;20208;-88
2023/10/22 06:19:36;;;;;;;16.73;10.93;;;;;;;;;;5085187;28;20229;-88
2023/10/22 06:22:05;;;;;;;16.03;11.33;;;;;;;;;;5078831;28;20192;-88
2023/10/22 06:24:32;;;;;;;14.67;11.77;;;;;;;;;;5072380;28;20221;-88
2023/10/22 06:27:18;;;;;;;13.63;11.43;;;;;;;;;;5062498;28;20186;-88
2023/10/22 06:29:48;;;;;;;15.70;12.50;;;;;;;;;;5074876;28;20192;-88
2023/10/22 06:32:17;;;;;;;14.53;12.07;;;;;;;;;;5077831;28;20179;-87
2023/10/22 06:37:52;;;;;;;17.90;12.40;;;;;;;;;;5081680;28;20241;-88
2023/10/22 06:40:36;;;;;;;13.50;11.47;;;;;;;;;;5081697;28;20175;-84
2023/10/22 06:43:02;;;;;;;12.40;10.27;;;;;;;;;;5083004;28;20186;-84
2023/10/22 06:45:48;;;;;;;12.73;11.03;;;;;;;;;;5069605;28;20297;-84
2023/10/22 06:48:17;;;;;;;12.77;11.10;;;;;;;;;;5081893;28;20178;-85
2023/10/22 06:50:44;;;;;;;13.07;11.73;;;;;;;;;;5068153;28;20258;-85
2023/10/22 06:53:36;;;;;;;12.13;10.67;;;;;;;;;;5068722;28;20255;-85
2023/10/22 06:59:19;;;;;;;12.20;10.30;;;;;;;;;;5078603;28;20151;-86
2023/10/22 07:01:54;;;;;;;17.47;10.80;;;;;;;;;;5076395;28;20205;-86
2023/10/22 07:04:20;;;;;;;13.00;9.67;;;;;;;;;;5089131;28;20208;-86
2023/10/22 07:06:55;;;;;;;14.83;9.43;;;;;;;;;;5089595;28;20205;-90
2023/10/22 07:09:43;;;;;;;11.17;8.57;;;;;;;;;;5065740;28;20202;-90
2023/10/22 07:12:17;;;;;;;12.90;8.27;;;;;;;;;;5068749;28;20198;-91
2023/10/22 07:15:00;;;;;;;10.70;7.67;;;;;;;;;;5085787;28;20201;-91
2023/10/22 07:17:55;;;;;;;9.13;8.00;;;;;;;;;;5072202;28;20183;-88
2023/10/22 07:20:39;;;;;;;8.90;7.43;;;;;;;;;;5062171;28;20192;-88
2023/10/22 07:23:31;;;;;;;10.77;7.20;;;;;;;;;;5077105;28;20214;-88
2023/10/22 07:25:58;;;;;;;11.47;7.30;;;;;;;;;;5083995;28;20218;-86
2023/10/22 07:28:27;;;;;;;10.77;7.03;;;;;;;;;;5088482;28;20182;-86
2023/10/22 07:30:56;;;;;;;13.03;7.03;;;;;;;;;;5068362;28;20216;-86
2023/10/22 07:36:33;;;;;;;11.23;6.30;;;;;;;;;;5074056;28;20217;-86
2023/10/22 07:39:24;;;;;;;9.07;7.13;;;;;;;;;;5062014;28;20236;-89
2023/10/22 07:42:12;;;;;;;10.57;5.70;;;;;;;;;;5079596;28;20225;-87
2023/10/22 07:44:43;;;;;;;8.00;5.40;;;;;;;;;;5083330;28;20217;-86
2023/10/22 07:47:12;;;;;;;8.30;4.97;;;;;;;;;;5096613;28;20171;-86
2023/10/22 07:49:51;;;;;;;10.73;5.70;;;;;;;;;;5079538;28;20179;-88
2023/10/22 07:55:18;;;;;;;7.80;5.17;;;;;;;;;;5078559;28;20226;-87
2023/10/22 07:57:44;;;;;;;8.20;4.70;;;;;;;;;;5085196;28;20215;-86
2023/10/22 08:00:27;;;;;;;10.20;7.03;;;;;;;;;;5084321;28;20178;-86
2023/10/22 08:02:57;;;;;;;8.73;4.43;;;;;;;;;;5086440;28;20194;-88
2023/10/22 08:06:00;;;;;;;5.87;4.80;;;;;;;;;;5085637;28;20214;-88
2023/10/22 08:09:38;;;;;;;;;;;;;;;;;;;;;
2023/10/22 08:11:58;;;;;;;7.83;4.27;;;;;;;;;;5067552;28;20190;-87
2023/10/22 08:15:09;;;;;;;8.50;5.03;;;;;;;;;;5087302;28;20271;-87
2023/10/22 08:20:00;;;;;;;8.03;3.40;;;;;;;;;;5012820;28;20275;-86
2023/10/22 08:22:34;;;;;;;7.20;4.20;;;;;;;;;;5085946;28;20226;-85
2023/10/22 08:25:00;;;;;;;9.20;3.80;;;;;;;;;;5066693;28;20218;-85
2023/10/22 08:27:33;;;;;;;6.33;3.47;;;;;;;;;;5066253;28;20208;-85
2023/10/22 08:29:59;;;;;;;5.20;3.30;;;;;;;;;;5087364;28;20265;-85
2023/10/22 08:32:46;;;;;;;5.43;2.73;;;;;;;;;;5083309;28;20266;-85
2023/10/22 08:35:18;;;;;;;5.47;3.30;;;;;;;;;;5083051;28;20210;-85
2023/10/22 08:37:47;;;;;;;6.57;3.30;;;;;;;;;;5082653;28;20241;-85
2023/10/22 08:40:18;;;;;;;4.87;2.60;;;;;;;;;;5086908;28;20187;-85
2023/10/22 08:42:53;;;;;;;14.30;2.93;;;;;;;;;;5079578;28;20191;-85
2023/10/22 08:45:27;;;;;;;6.23;2.70;;;;;;;;;;5080150;28;20225;-85
2023/10/22 08:47:56;;;;;;;4.97;2.97;;;;;;;;;;5086698;28;20178;-85
2023/10/22 08:50:25;;;;;;;5.07;2.53;;;;;;;;;;5086886;28;20179;-86
2023/10/22 08:56:29;;;;;;;4.80;2.63;;;;;;;;;;5025632;28;20272;-87
2023/10/22 08:59:05;;;;;;;3.90;2.33;;;;;;;;;;5005778;28;20184;-85
2023/10/22 09:01:40;;;;;;;6.43;2.47;;;;;;;;;;5054005;28;20218;-92
2023/10/22 09:04:21;;;;;;;;;;;;;;;;;;;;;
2023/10/22 09:07:09;;;;;;;6.43;2.47;;;;;;;;;;5079801;28;20258;-94
2023/10/22 09:13:23;;;;;;;;;;;;;;;;;;;;;
2023/10/22 09:16:06;;;;;;;;;;;;;;;;;;;;;
2023/10/22 09:18:57;;;;;;;5.83;2.40;;;;;;;;;;5089408;28;20217;-93
2023/10/22 09:21:44;;;;;;;5.17;2.50;;;;;;;;;;5095046;28;20193;-92
2023/10/22 09:24:15;;;;;;;5.67;2.77;;;;;;;;;;5052276;28;20189;-94
2023/10/22 09:26:54;;;;;;;5.50;2.30;;;;;;;;;;5095383;28;20171;-92
2023/10/22 09:29:26;;;;;;;6.43;3.30;;;;;;;;;;5090831;28;20181;-94
2023/10/22 09:32:01;;;;;;;6.07;2.40;;;;;;;;;;5081320;28;20182;-93
2023/10/22 09:34:28;;;;;;;6.87;2.50;;;;;;;;;;5079858;28;20195;-93
2023/10/22 09:37:00;;;;;;;7.13;3.20;;;;;;;;;;5090403;28;20211;-93
2023/10/22 09:39:39;;;;;;;7.00;2.77;;;;;;;;;;5074609;28;20239;-94
2023/10/22 09:42:15;;;;;;;5.60;3.30;;;;;;;;;;5077115;28;20191;-93
2023/10/22 09:44:44;;;;;;;5.43;2.70;;;;;;;;;;5094756;28;20229;-94
2023/10/22 09:47:22;;;;;;;6.57;2.97;;;;;;;;;;5077762;28;20174;-94
2023/10/22 09:50:07;;;;;;;5.17;2.40;;;;;;;;;;5071524;28;20541;-85
2023/10/22 09:52:35;;;;;;;4.97;2.60;;;;;;;;;;5070718;28;20237;-85
2023/10/22 09:55:05;;;;;;;7.97;2.43;;;;;;;;;;5070336;28;20189;-85
2023/10/22 09:57:31;;;;;;;4.37;2.20;;;;;;;;;;5050864;28;20279;-88
2023/10/22 10:00:01;;;;;;;4.30;2.20;;;;;;;;;;5050634;28;20184;-88
2023/10/22 10:02:28;;;;;;;5.23;2.40;;;;;;;;;;5050858;28;20242;-88
2023/10/22 10:04:54;;;;;;;5.63;2.20;;;;;;;;;;5053213;28;20183;-89
2023/10/22 10:07:23;;;;;;;5.03;2.17;;;;;;;;;;5054042;28;20190;-88
2023/10/22 10:09:49;;;;;;;4.23;2.10;;;;;;;;;;5069996;28;20264;-87
2023/10/22 10:12:16;;;;;;;8.03;2.50;;;;;;;;;;5070623;28;20175;-88
2023/10/22 10:14:42;;;;;;;5.83;2.10;;;;;;;;;;5039926;28;20211;-92
2023/10/22 10:17:09;;;;;;;4.70;1.77;;;;;;;;;;5050751;28;20180;-92
2023/10/22 10:19:35;;;;;;;5.10;1.70;;;;;;;;;;5058995;28;20329;-92
2023/10/22 10:22:01;;;;;;;3.10;1.80;;;;;;;;;;5068270;28;20191;-92
2023/10/22 10:24:28;;;;;;;4.07;1.63;;;;;;;;;;5041797;28;20216;-92
2023/10/22 10:26:57;;;;;;;2.97;1.50;;;;;;;;;;5068812;28;20196;-92
2023/10/22 10:29:23;;;;;;;6.70;2.10;;;;;;;;;;5052372;28;20437;-92
2023/10/22 10:31:53;;;;;;;4.80;2.37;;;;;;;;;;5058635;28;20186;-92
2023/10/22 10:34:27;;;;;;;4.53;2.00;;;;;;;;;;5071249;28;20171;-94
2023/10/22 10:36:53;;;;;;;4.03;2.30;;;;;;;;;;5070022;28;20172;-92
2023/10/22 10:39:39;;;;;;;4.17;1.97;;;;;;;;;;5069890;28;20171;-92
2023/10/22 10:42:05;;;;;;;6.47;2.13;;;;;;;;;;5069693;28;20178;-93
2023/10/22 10:44:31;;;;;;;3.53;1.90;;;;;;;;;;5070511;28;20175;-93
2023/10/22 10:47:31;;;;;;;3.87;1.50;;;;;;;;;;5053669;28;20191;-92
2023/10/22 10:50:04;;;;;;;2.57;1.50;;;;;;;;;;5069268;28;20231;-93
2023/10/22 10:52:39;;;;;;;5.50;2.40;;;;;;;;;;5069283;28;20233;-92
2023/10/22 10:55:27;;;;;;;5.67;1.90;;;;;;;;;;5069611;28;20171;-94
2023/10/22 10:57:54;;;;;;;5.83;1.70;;;;;;;;;;5070270;28;20191;-94
2023/10/22 11:00:28;;;;;;;5.23;2.40;;;;;;;;;;5056528;28;20177;-92
2023/10/22 11:02:55;;;;;;;8.03;2.20;;;;;;;;;;5052851;28;20249;-88
2023/10/22 11:05:31;;;;;;;4.53;2.97;;;;;;;;;;5039046;28;20172;-88
2023/10/22 11:07:57;;;;;;;3.10;2.07;;;;;;;;;;5067540;28;20211;-89
2023/10/22 11:10:23;;;;;;;3.40;1.50;;;;;;;;;;5067050;28;20187;-89
2023/10/22 11:12:53;;;;;;;3.73;1.80;;;;;;;;;;5055706;28;20172;-88
2023/10/22 11:15:19;;;;;;;7.10;3.03;;;;;;;;;;5044710;28;20252;-88
2023/10/22 11:17:45;;;;;;;4.07;2.37;;;;;;;;;;5038425;28;20215;-89
2023/10/22 11:20:15;;;;;;;4.20;2.60;;;;;;;;;;5051639;28;20186;-91
2023/10/22 11:22:41;;;;;;;8.77;2.00;;;;;;;;;;5057020;28;20172;-92
2023/10/22 11:25:09;;;;;;;4.83;2.33;;;;;;;;;;5039183;28;20180;-92
2023/10/22 11:27:39;;;;;;;4.47;2.57;;;;;;;;;;5041838;28;20192;-93
2023/10/22 11:30:05;;;;;;;6.00;2.97;;;;;;;;;;5036141;28;20189;-92
2023/10/22 11:32:35;;;;;;;4.30;2.00;;;;;;;;;;5035403;28;20180;-93
2023/10/22 11:35:03;;;;;;;4.00;1.63;;;;;;;;;;5046453;28;20216;-92
2023/10/22 11:37:39;;;;;;;4.07;1.80;;;;;;;;;;5056086;28;20227;-91
2023/10/22 11:40:25;;;;;;;6.10;1.80;;;;;;;;;;5036482;28;20192;-92
2023/10/22 11:42:51;;;;;;;3.80;1.77;;;;;;;;;;5035243;28;20177;-92
2023/10/22 11:45:17;;;;;;;2.60;1.90;;;;;;;;;;5035448;28;20176;-92
2023/10/22 11:47:43;;;;;;;7.03;2.40;;;;;;;;;;5035621;28;20180;-92
2023/10/22 11:50:09;;;;;;;5.43;1.97;;;;;;;;;;5035715;28;20176;-91
2023/10/22 11:52:38;;;;;;;4.60;2.53;;;;;;;;;;5035414;28;20176;-92
2023/10/22 11:55:06;;;;;;;5.07;3.00;;;;;;;;;;5035348;28;20188;-89
2023/10/22 11:57:33;;;;;;;5.17;2.30;;;;;;;;;;5035352;28;20177;-88
2023/10/22 11:59:59;;;;;;;5.18;2.55;;;;;;;;;;5034921;28;20419;-88
2023/10/22 12:02:25;;;;;;;3.83;2.10;;;;;;;;;;5035106;28;20184;-88
2023/10/22 12:04:51;;;;;;;4.43;2.20;;;;;;;;;;5050932;28;20212;-89
2023/10/22 12:07:17;;;;;;;4.47;2.47;;;;;;;;;;5018354;28;20181;-89
2023/10/22 12:09:44;;;;;;;6.67;2.53;;;;;;;;;;5045576;28;20208;-88
2023/10/22 12:12:10;;;;;;;3.95;2.20;;;;;;;;;;5033292;28;20497;-88
2023/10/22 12:14:39;;;;;;;4.30;2.37;;;;;;;;;;5043168;28;20176;-88
2023/10/22 12:17:05;;;;;;;5.30;2.27;;;;;;;;;;5041025;28;20222;-88
2023/10/22 12:19:34;;;;;;;5.77;2.50;;;;;;;;;;5034580;28;20180;-89
2023/10/22 12:22:00;;;;;;;3.75;2.65;;;;;;;;;;5034272;23;20497;-84
2023/10/22 12:24:26;;;;;;;4.03;2.70;;;;;;;;;;4999709;28;20412;-83
2023/10/22 12:26:53;;;;;;;4.07;2.90;;;;;;;;;;5012535;28;20410;-85
2023/10/22 12:29:19;;;;;;;6.03;2.90;;;;;;;;;;5012347;28;20216;-84
2023/10/22 12:31:45;;;;;;;4.00;2.60;;;;;;;;;;4992831;28;20427;-83
2023/10/22 12:34:11;;;;;;;3.58;2.53;;;;;;;;;;5002102;28;20499;-84
2023/10/22 12:36:37;;;;;;;5.32;2.72;;;;;;;;;;5006026;28;20482;-84
2023/10/22 12:39:03;;;;;;;5.05;3.70;;;;;;;;;;4995851;28;20408;-84
2023/10/22 12:41:29;;;;;;;5.32;3.05;;;;;;;;;;5003653;28;20422;-83
2023/10/22 12:43:55;;;;;;;3.63;2.70;;;;;;;;;;5008542;28;20443;-78
2023/10/22 12:46:21;;;;;;;3.97;3.35;;;;;;;;;;4994472;28;20512;-79
2023/10/22 12:48:47;;;;;;;5.60;3.42;;;;;;;;;;4995391;28;20439;-78
2023/10/22 12:51:13;;;;;;;6.10;3.30;;;;;;;;;;4996497;28;20499;-78
2023/10/22 12:53:39;;;;;;;5.20;2.60;;;;;;;;;;5005823;28;20467;-78
2023/10/22 12:56:07;;;;;;;3.83;2.45;;;;;;;;;;5006878;28;20464;-78
2023/10/22 12:58:34;;;;;;;5.15;3.03;;;;;;;;;;4996931;28;20411;-79
2023/10/22 13:01:00;;;;;;;4.70;3.17;;;;;;;;;;5010475;28;20442;-84
2023/10/22 13:03:26;;;;;;;28.13;5.70;;;;;;;;;;5000663;28;20425;-85
2023/10/22 13:05:52;;;;;;;60.40;8.20;;;;;;;;;;5013612;28;20420;-84
2023/10/22 13:08:19;;;;;;;5.55;4.00;;;;;;;;;;5002269;28;20437;-84
2023/10/22 13:10:49;;;;;;;5.30;3.00;;;;;;;;;;5007286;28;20419;-84
2023/10/22 13:13:15;;;;;;;4.80;3.13;;;;;;;;;;5005703;28;20405;-85
2023/10/22 13:15:41;;;;;;;5.70;4.00;;;;;;;;;;5013460;28;20445;-79
2023/10/22 13:18:07;;;;;;;8.20;4.80;;;;;;;;;;4998161;28;20185;-85
2023/10/22 13:20:33;;;;;;;3.43;3.00;;;;;;;;;;5013646;28;20181;-84
2023/10/22 13:22:59;;;;;;;3.30;2.60;;;;;;;;;;5013227;28;20296;-84
2023/10/22 13:25:26;;;;;;;7.40;3.27;;;;;;;;;;5013296;28;20189;-85
2023/10/22 13:27:52;;;;;;;5.43;2.90;;;;;;;;;;5013700;28;20185;-85
2023/10/22 13:30:19;;;;;;;3.87;2.60;;;;;;;;;;5018972;28;20177;-85
2023/10/22 13:32:45;;;;;;;5.37;2.37;;;;;;;;;;5048744;28;20177;-80
2023/10/22 13:35:11;;;;;;;2.83;2.30;;;;;;;;;;5009924;28;20210;-78
2023/10/22 13:37:37;;;;;;;3.43;2.13;;;;;;;;;;5011455;28;20186;-80
2023/10/22 13:40:03;;;;;;;5.33;2.40;;;;;;;;;;4996858;28;20200;-80
2023/10/22 13:42:29;;;;;;;6.03;2.50;;;;;;;;;;5013452;28;20217;-79
2023/10/22 13:44:56;;;;;;;3.20;2.10;;;;;;;;;;5028552;28;20196;-79
2023/10/22 13:47:22;;;;;;;4.53;2.20;;;;;;;;;;4996828;28;20189;-79
2023/10/22 13:49:48;;;;;;;3.93;2.50;;;;;;;;;;5011466;28;20217;-84
2023/10/22 13:52:15;;;;;;;4.43;3.10;;;;;;;;;;4995724;28;20258;-84
2023/10/22 13:54:41;;;;;;;4.47;2.23;;;;;;;;;;5004526;28;20252;-84
2023/10/22 13:57:07;;;;;;;6.10;3.10;;;;;;;;;;5017477;28;20217;-84
2023/10/22 13:59:34;;;;;;;5.63;3.27;;;;;;;;;;5001801;28;20190;-84
2023/10/22 14:02:00;;;;;;;5.22;2.55;;;;;;;;;;5003614;28;20422;-83
2023/10/22 14:04:26;;;;;;;3.90;2.17;;;;;;;;;;4995997;28;20185;-82
2023/10/22 14:06:52;;;;;;;5.90;3.93;;;;;;;;;;5012907;28;20201;-79
2023/10/22 14:09:19;;;;;;;4.77;2.57;;;;;;;;;;5002008;28;20217;-79
2023/10/22 14:11:47;;;;;;;3.77;1.50;;;;;;;;;;5009911;28;20190;-78
2023/10/22 14:14:13;;;;;;;4.80;1.83;;;;;;;;;;5002053;28;20268;-79
2023/10/22 14:16:39;;;;;;;3.97;1.80;;;;;;;;;;4995029;28;20221;-79
2023/10/22 14:19:05;;;;;;;5.27;2.10;;;;;;;;;;5004570;28;20256;-79
2023/10/22 14:21:31;;;;;;;3.77;2.10;;;;;;;;;;5007021;28;20197;-80
2023/10/22 14:23:57;;;;;;;4.40;1.80;;;;;;;;;;4993838;28;20201;-78
2023/10/22 14:26:24;;;;;;;3.17;2.00;;;;;;;;;;4995215;28;20197;-78
2023/10/22 14:28:50;;;;;;;3.50;2.53;;;;;;;;;;5001670;28;20436;-79
2023/10/22 14:31:19;;;;;;;3.90;2.70;;;;;;;;;;4992389;28;20205;-80
2023/10/22 14:33:45;;;;;;;5.07;2.77;;;;;;;;;;4993392;28;20281;-78
2023/10/22 14:36:12;;;;;;;3.07;1.70;;;;;;;;;;5016399;28;20204;-78
2023/10/22 14:38:38;;;;;;;2.60;1.57;;;;;;;;;;5004840;28;20186;-78
2023/10/22 14:41:04;;;;;;;3.77;1.70;;;;;;;;;;5005963;28;20189;-84
2023/10/22 14:43:31;;;;;;;3.03;1.70;;;;;;;;;;5012879;28;20190;-84
2023/10/22 14:46:00;;;;;;;3.70;1.60;;;;;;;;;;5010427;28;20189;-84
2023/10/22 14:48:27;;;;;;;3.83;2.10;;;;;;;;;;5018544;28;20257;-84
2023/10/22 14:50:57;;;;;;;1.90;1.80;;;;;;;;;;5004114;28;20248;-84
2023/10/22 14:53:24;;;;;;;5.30;2.17;;;;;;;;;;4997870;28;20174;-84
2023/10/22 14:55:57;;;;;;;4.10;2.13;;;;;;;;;;5011019;28;20185;-78
2023/10/22 14:58:23;;;;;;;4.90;2.20;;;;;;;;;;5009144;28;20189;-83
2023/10/22 15:00:49;;;;;;;5.53;2.08;;;;;;;;;;4995734;28;20464;-77
2023/10/22 15:03:15;;;;;;;3.10;1.70;;;;;;;;;;5007706;28;20206;-78
2023/10/22 15:05:44;;;;;;;4.07;2.70;;;;;;;;;;5015901;28;20204;-77
2023/10/22 15:08:11;;;;;;;2.93;2.20;;;;;;;;;;5015784;28;20232;-77
2023/10/22 15:10:43;;;;;;;3.13;1.90;;;;;;;;;;5016224;28;20181;-77
2023/10/22 15:13:10;;;;;;;4.60;1.97;;;;;;;;;;4999568;28;20186;-82
2023/10/22 15:15:43;;;;;;;3.40;2.13;;;;;;;;;;5016273;28;20178;-83
2023/10/22 15:18:09;;;;;;;7.73;3.83;;;;;;;;;;4997315;28;20276;-83
2023/10/22 15:20:39;;;;;;;5.87;2.70;;;;;;;;;;5011276;28;20209;-82
2023/10/22 15:23:05;;;;;;;7.03;4.63;;;;;;;;;;5015606;28;20241;-83
2023/10/22 15:25:31;;;;;;;5.77;3.60;;;;;;;;;;5012583;28;20221;-83
2023/10/22 15:27:57;;;;;;;5.57;2.90;;;;;;;;;;4980002;28;20189;-83
2023/10/22 15:30:30;;;;;;;5.63;3.23;;;;;;;;;;5006533;28;20204;-79
2023/10/22 15:32:56;;;;;;;4.33;3.00;;;;;;;;;;5035205;28;20185;-79
2023/10/22 15:35:27;;;;;;;5.43;2.63;;;;;;;;;;5033770;28;20176;-79
2023/10/22 15:37:54;;;;;;;4.50;3.00;;;;;;;;;;5015047;28;20184;-78
2023/10/22 15:40:20;;;;;;;4.67;3.23;;;;;;;;;;4995906;28;20248;-79
2023/10/22 15:42:46;;;;;;;7.47;3.40;;;;;;;;;;4995621;28;20182;-78
2023/10/22 15:45:12;;;;;;;3.33;2.50;;;;;;;;;;4979807;28;20225;-79
2023/10/22 15:47:38;;;;;;;3.20;2.37;;;;;;;;;;5000776;28;20182;-83
2023/10/22 15:50:04;;;;;;;3.10;2.30;;;;;;;;;;5008029;28;20221;-84
2023/10/22 15:52:30;;;;;;;4.70;2.30;;;;;;;;;;5015259;28;20192;-83
2023/10/22 15:54:56;;;;;;;5.70;3.00;;;;;;;;;;4998721;28;20279;-82
2023/10/22 15:57:23;;;;;;;3.47;2.30;;;;;;;;;;5002728;28;20221;-83
2023/10/22 15:59:49;;;;;;;3.60;3.23;;;;;;;;;;5003347;28;20189;-83
2023/10/22 16:02:15;;;;;;;4.47;3.43;;;;;;;;;;5006417;28;20189;-83
2023/10/22 16:04:41;;;;;;;5.97;2.93;;;;;;;;;;5021605;28;20190;-82
2023/10/22 16:07:07;;;;;;;5.23;2.97;;;;;;;;;;4996853;28;20204;-83
2023/10/22 16:09:33;;;;;;;3.27;2.60;;;;;;;;;;5003104;28;20214;-82
2023/10/22 16:11:59;;;;;;;5.23;2.90;;;;;;;;;;5011544;28;20185;-82
2023/10/22 16:14:26;;;;;;;9.00;3.70;;;;;;;;;;5011424;28;20190;-82
2023/10/22 16:16:52;;;;;;;3.90;3.10;;;;;;;;;;5007108;28;20304;-83
2023/10/22 16:19:18;;;;;;;5.47;3.40;;;;;;;;;;5007159;28;20204;-82
2023/10/22 16:21:44;;;;;;;18.03;9.43;;;;;;;;;;5017322;28;20271;-77
2023/10/22 16:24:10;;;;;;;6.37;5.70;;;;;;;;;;5010431;28;20189;-77
2023/10/22 16:26:36;;;;;;;9.23;6.43;;;;;;;;;;5003900;28;20186;-77
2023/10/22 16:29:02;;;;;;;7.27;6.20;;;;;;;;;;5011588;28;20247;-77
2023/10/22 16:31:30;;;;;;;9.20;5.63;;;;;;;;;;4996171;28;20210;-77